sensor_id;sensor_type;location;lat;lon;timestamp;pressure;altitude;pressure_sealevel;temperature
78859;BMP280;68210;52.032;4.634;2023-08-08T00:01:26;101265.81;;;19.33
78859;BMP280;68210;52.032;4.634;2023-08-08T00:03:26;101257.19;;;19.31
78859;BMP280;68210;52.032;4.634;2023-08-08T00:05:27;101270.53;;;19.29
78859;BMP280;68210;52.032;4.634;2023-08-08T00:07:27;101260.34;;;19.29
78859;BMP280;68210;52.032;4.634;2023-08-08T00:09:30;101258.34;;;19.37
78859;BMP280;68210;52.032;4.634;2023-08-08T00:11:30;101261.09;;;19.37
78859;BMP280;68210;52.032;4.634;2023-08-08T00:13:31;101270.16;;;19.27
78859;BMP280;68210;52.032;4.634;2023-08-08T00:15:31;101269.75;;;19.28
78859;BMP280;68210;52.032;4.634;2023-08-08T00:17:32;101263.09;;;19.22
78859;BMP280;68210;52.032;4.634;2023-08-08T00:19:33;101260.31;;;19.33
78859;BMP280;68210;52.032;4.634;2023-08-08T00:21:33;101254.03;;;19.36
78859;BMP280;68210;52.032;4.634;2023-08-08T00:23:33;101259.13;;;19.37
78859;BMP280;68210;52.032;4.634;2023-08-08T00:25:35;101261.88;;;19.34
78859;BMP280;68210;52.032;4.634;2023-08-08T00:27:35;101261.13;;;19.30
78859;BMP280;68210;52.032;4.634;2023-08-08T00:29:39;101261.09;;;19.37
78859;BMP280;68210;52.032;4.634;2023-08-08T00:31:39;101258.72;;;19.39
78859;BMP280;68210;52.032;4.634;2023-08-08T00:33:40;101258.72;;;19.39
78859;BMP280;68210;52.032;4.634;2023-08-08T00:35:40;101261.84;;;19.48
78859;BMP280;68210;52.032;4.634;2023-08-08T00:37:40;101263.03;;;19.40
78859;BMP280;68210;52.032;4.634;2023-08-08T00:39:41;101267.38;;;19.37
78859;BMP280;68210;52.032;4.634;2023-08-08T00:41:46;101265.03;;;19.43
78859;BMP280;68210;52.032;4.634;2023-08-08T00:43:46;101268.53;;;19.47
78859;BMP280;68210;52.032;4.634;2023-08-08T00:45:46;101268.13;;;19.51
78859;BMP280;68210;52.032;4.634;2023-08-08T00:47:47;101264.97;;;19.53
78859;BMP280;68210;52.032;4.634;2023-08-08T00:49:47;101258.28;;;19.50
78859;BMP280;68210;52.032;4.634;2023-08-08T00:51:48;101260.28;;;19.47
78859;BMP280;68210;52.032;4.634;2023-08-08T00:53:49;101255.53;;;19.50
78859;BMP280;68210;52.032;4.634;2023-08-08T00:55:50;101250.81;;;19.54
78859;BMP280;68210;52.032;4.634;2023-08-08T00:57:51;101251.22;;;19.49
78859;BMP280;68210;52.032;4.634;2023-08-08T00:59:51;101243.78;;;19.47
78859;BMP280;68210;52.032;4.634;2023-08-08T01:01:52;101247.69;;;19.49
78859;BMP280;68210;52.032;4.634;2023-08-08T01:03:53;101249.28;;;19.47
78859;BMP280;68210;52.032;4.634;2023-08-08T01:06:00;101259.50;;;19.39
78859;BMP280;68210;52.032;4.634;2023-08-08T01:08:05;101251.63;;;19.51
78859;BMP280;68210;52.032;4.634;2023-08-08T01:10:14;101242.97;;;19.56
78859;BMP280;68210;52.032;4.634;2023-08-08T01:12:15;101246.88;;;19.62
78859;BMP280;68210;52.032;4.634;2023-08-08T01:14:16;101249.63;;;19.59
78859;BMP280;68210;52.032;4.634;2023-08-08T01:16:17;101250.84;;;19.51
78859;BMP280;68210;52.032;4.634;2023-08-08T01:18:19;101241.81;;;19.47
78859;BMP280;68210;52.032;4.634;2023-08-08T01:20:20;101245.72;;;19.56
78859;BMP280;68210;52.032;4.634;2023-08-08T01:22:31;101251.59;;;19.58
78859;BMP280;68210;52.032;4.634;2023-08-08T01:24:33;101246.09;;;19.58
78859;BMP280;68210;52.032;4.634;2023-08-08T01:26:37;101240.63;;;19.45
78859;BMP280;68210;52.032;4.634;2023-08-08T01:28:39;101239.03;;;19.54
78859;BMP280;68210;52.032;4.634;2023-08-08T01:30:39;101244.13;;;19.62
78859;BMP280;68210;52.032;4.634;2023-08-08T01:32:40;101242.91;;;19.63
78859;BMP280;68210;52.032;4.634;2023-08-08T01:34:41;101240.22;;;19.49
78859;BMP280;68210;52.032;4.634;2023-08-08T01:37:13;101243.00;;;19.46
78859;BMP280;68210;52.032;4.634;2023-08-08T01:39:17;101249.28;;;19.43
78859;BMP280;68210;52.032;4.634;2023-08-08T01:41:20;101243.00;;;19.46
78859;BMP280;68210;52.032;4.634;2023-08-08T01:43:22;101239.50;;;19.28
78859;BMP280;68210;52.032;4.634;2023-08-08T01:45:23;101242.22;;;19.39
78859;BMP280;68210;52.032;4.634;2023-08-08T01:47:25;101238.31;;;19.43
78859;BMP280;68210;52.032;4.634;2023-08-08T01:49:25;101237.09;;;19.44
78859;BMP280;68210;52.032;4.634;2023-08-08T01:51:26;101241.06;;;19.43
78859;BMP280;68210;52.032;4.634;2023-08-08T01:53:28;101231.59;;;19.48
78859;BMP280;68210;52.032;4.634;2023-08-08T01:55:30;101230.00;;;19.53
78859;BMP280;68210;52.032;4.634;2023-08-08T01:57:30;101226.09;;;19.48
78859;BMP280;68210;52.032;4.634;2023-08-08T01:59:30;101220.19;;;19.52
78859;BMP280;68210;52.032;4.634;2023-08-08T02:01:31;101218.22;;;19.53
78859;BMP280;68210;52.032;4.634;2023-08-08T02:03:31;101222.53;;;19.54
78859;BMP280;68210;52.032;4.634;2023-08-08T02:05:31;101226.53;;;19.43
78859;BMP280;68210;52.032;4.634;2023-08-08T02:07:32;101224.16;;;19.41
78859;BMP280;68210;52.032;4.634;2023-08-08T02:09:32;101217.09;;;19.40
78859;BMP280;68210;52.032;4.634;2023-08-08T02:11:33;101218.66;;;19.41
78859;BMP280;68210;52.032;4.634;2023-08-08T02:13:33;101221.00;;;19.46
78859;BMP280;68210;52.032;4.634;2023-08-08T02:15:33;101221.44;;;19.38
78859;BMP280;68210;52.032;4.634;2023-08-08T02:17:34;101209.25;;;19.35
78859;BMP280;68210;52.032;4.634;2023-08-08T02:19:34;101206.88;;;19.37
78859;BMP280;68210;52.032;4.634;2023-08-08T02:21:34;101211.97;;;19.46
78859;BMP280;68210;52.032;4.634;2023-08-08T02:23:35;101211.56;;;19.47
78859;BMP280;68210;52.032;4.634;2023-08-08T02:25:35;101217.09;;;19.33
78859;BMP280;68210;52.032;4.634;2023-08-08T02:27:36;101218.25;;;19.46
78859;BMP280;68210;52.032;4.634;2023-08-08T02:29:36;101221.44;;;19.27
78859;BMP280;68210;52.032;4.634;2023-08-08T02:31:36;101219.84;;;19.40
78859;BMP280;68210;52.032;4.634;2023-08-08T02:33:37;101217.03;;;19.50
78859;BMP280;68210;52.032;4.634;2023-08-08T02:35:37;101212.31;;;19.54
78859;BMP280;68210;52.032;4.634;2023-08-08T02:37:38;101209.97;;;19.49
78859;BMP280;68210;52.032;4.634;2023-08-08T02:39:38;101198.97;;;19.56
78859;BMP280;68210;52.032;4.634;2023-08-08T02:41:39;101202.97;;;19.35
78859;BMP280;68210;52.032;4.634;2023-08-08T02:43:39;101204.56;;;19.32
78859;BMP280;68210;52.032;4.634;2023-08-08T02:45:39;101214.03;;;19.07
78859;BMP280;68210;52.032;4.634;2023-08-08T02:47:40;101203.47;;;18.95
78859;BMP280;68210;52.032;4.634;2023-08-08T02:49:40;101210.13;;;19.08
78859;BMP280;68210;52.032;4.634;2023-08-08T02:51:40;101212.44;;;19.20
78859;BMP280;68210;52.032;4.634;2023-08-08T02:53:41;101203.00;;;19.28
78859;BMP280;68210;52.032;4.634;2023-08-08T02:55:41;101201.38;;;19.34
78859;BMP280;68210;52.032;4.634;2023-08-08T02:57:41;101195.94;;;19.27
78859;BMP280;68210;52.032;4.634;2023-08-08T02:59:42;101198.69;;;19.27
78859;BMP280;68210;52.032;4.634;2023-08-08T03:01:42;101198.25;;;19.32
78859;BMP280;68210;52.032;4.634;2023-08-08T03:03:43;101193.19;;;19.27
78859;BMP280;68210;52.032;4.634;2023-08-08T03:05:44;101195.94;;;19.23
78859;BMP280;68210;52.032;4.634;2023-08-08T03:07:45;101192.03;;;19.14
78859;BMP280;68210;52.032;4.634;2023-08-08T03:09:46;101193.19;;;19.13
78859;BMP280;68210;52.032;4.634;2023-08-08T03:11:46;101197.50;;;19.21
78859;BMP280;68210;52.032;4.634;2023-08-08T03:13:46;101197.94;;;19.16
78859;BMP280;68210;52.032;4.634;2023-08-08T03:15:47;101201.50;;;18.86
78859;BMP280;68210;52.032;4.634;2023-08-08T03:17:47;101207.78;;;18.96
78859;BMP280;68210;52.032;4.634;2023-08-08T03:19:48;101204.22;;;19.06
78859;BMP280;68210;52.032;4.634;2023-08-08T03:21:48;101203.03;;;19.07
78859;BMP280;68210;52.032;4.634;2023-08-08T03:23:48;101199.88;;;19.19
78859;BMP280;68210;52.032;4.634;2023-08-08T03:25:49;101200.66;;;19.19
78859;BMP280;68210;52.032;4.634;2023-08-08T03:27:49;101194.34;;;19.26
78859;BMP280;68210;52.032;4.634;2023-08-08T03:29:50;101193.16;;;19.34
78859;BMP280;68210;52.032;4.634;2023-08-08T03:31:50;101194.69;;;19.42
78859;BMP280;68210;52.032;4.634;2023-08-08T03:33:51;101190.34;;;19.44
78859;BMP280;68210;52.032;4.634;2023-08-08T03:35:51;101187.16;;;19.52
78859;BMP280;68210;52.032;4.634;2023-08-08T03:37:52;101187.22;;;19.42
78859;BMP280;68210;52.032;4.634;2023-08-08T03:39:52;101184.09;;;19.37
78859;BMP280;68210;52.032;4.634;2023-08-08T03:41:52;101172.31;;;19.36
78859;BMP280;68210;52.032;4.634;2023-08-08T03:43:53;101174.69;;;19.38
78859;BMP280;68210;52.032;4.634;2023-08-08T03:45:53;101178.22;;;19.35
78859;BMP280;68210;52.032;4.634;2023-08-08T03:47:53;101174.75;;;19.24
78859;BMP280;68210;52.032;4.634;2023-08-08T03:49:55;101178.66;;;19.19
78859;BMP280;68210;52.032;4.634;2023-08-08T03:51:57;101173.19;;;19.16
78859;BMP280;68210;52.032;4.634;2023-08-08T03:53:57;101171.63;;;19.12
78859;BMP280;68210;52.032;4.634;2023-08-08T03:55:58;101175.56;;;19.11
78859;BMP280;68210;52.032;4.634;2023-08-08T03:57:58;101172.06;;;18.93
78859;BMP280;68210;52.032;4.634;2023-08-08T03:59:59;101170.47;;;18.88
78859;BMP280;68210;52.032;4.634;2023-08-08T04:01:59;101168.50;;;18.99
78859;BMP280;68210;52.032;4.634;2023-08-08T04:03:59;101170.09;;;19.00
78859;BMP280;68210;52.032;4.634;2023-08-08T04:06:00;101172.47;;;18.95
78859;BMP280;68210;52.032;4.634;2023-08-08T04:08:00;101169.25;;;19.10
78859;BMP280;68210;52.032;4.634;2023-08-08T04:10:01;101164.59;;;19.00
78859;BMP280;68210;52.032;4.634;2023-08-08T04:12:01;101165.75;;;18.99
78859;BMP280;68210;52.032;4.634;2023-08-08T04:14:02;101172.44;;;19.05
78859;BMP280;68210;52.032;4.634;2023-08-08T04:16:03;101162.25;;;18.95
78859;BMP280;68210;52.032;4.634;2023-08-08T04:18:03;101165.03;;;18.71
78859;BMP280;68210;52.032;4.634;2023-08-08T04:20:06;101168.16;;;18.66
78859;BMP280;68210;52.032;4.634;2023-08-08T04:22:07;101163.84;;;18.69
78859;BMP280;68210;52.032;4.634;2023-08-08T04:24:07;101166.22;;;18.63
78859;BMP280;68210;52.032;4.634;2023-08-08T04:26:08;101167.00;;;18.71
78859;BMP280;68210;52.032;4.634;2023-08-08T04:28:08;101166.59;;;18.69
78859;BMP280;68210;52.032;4.634;2023-08-08T04:30:09;101167.75;;;18.71
78859;BMP280;68210;52.032;4.634;2023-08-08T04:32:09;101171.72;;;18.60
78859;BMP280;68210;52.032;4.634;2023-08-08T04:34:10;101165.44;;;18.46
78859;BMP280;68210;52.032;4.634;2023-08-08T04:36:10;101164.66;;;18.56
78859;BMP280;68210;52.032;4.634;2023-08-08T04:38:13;101161.09;;;18.72
78859;BMP280;68210;52.032;4.634;2023-08-08T04:40:13;101170.91;;;18.77
78859;BMP280;68210;52.032;4.634;2023-08-08T04:42:14;101167.78;;;18.57
78859;BMP280;68210;52.032;4.634;2023-08-08T04:44:14;101170.53;;;18.68
78859;BMP280;68210;52.032;4.634;2023-08-08T04:46:14;101170.91;;;18.56
78859;BMP280;68210;52.032;4.634;2023-08-08T04:48:15;101181.13;;;18.66
78859;BMP280;68210;52.032;4.634;2023-08-08T04:50:15;101174.84;;;18.76
78859;BMP280;68210;52.032;4.634;2023-08-08T04:52:16;101179.94;;;18.60
78859;BMP280;68210;52.032;4.634;2023-08-08T04:54:16;101180.34;;;18.65
78859;BMP280;68210;52.032;4.634;2023-08-08T04:56:16;101176.41;;;18.73
78859;BMP280;68210;52.032;4.634;2023-08-08T04:58:17;101184.25;;;18.68
78859;BMP280;68210;52.032;4.634;2023-08-08T05:00:17;101179.53;;;18.72
78859;BMP280;68210;52.032;4.634;2023-08-08T05:02:17;101183.06;;;18.76
78859;BMP280;68210;52.032;4.634;2023-08-08T05:04:18;101174.81;;;18.79
78859;BMP280;68210;52.032;4.634;2023-08-08T05:06:18;101182.66;;;18.84
78859;BMP280;68210;52.032;4.634;2023-08-08T05:08:18;101181.50;;;18.82
78859;BMP280;68210;52.032;4.634;2023-08-08T05:10:19;101176.34;;;18.84
78859;BMP280;68210;52.032;4.634;2023-08-08T05:12:19;101188.19;;;18.60
78859;BMP280;68210;52.032;4.634;2023-08-08T05:14:20;101184.22;;;18.75
78859;BMP280;68210;52.032;4.634;2023-08-08T05:16:20;101183.44;;;18.85
78859;BMP280;68210;52.032;4.634;2023-08-08T05:18:20;101175.19;;;18.91
78859;BMP280;68210;52.032;4.634;2023-08-08T05:20:21;101181.88;;;18.97
78859;BMP280;68210;52.032;4.634;2023-08-08T05:22:22;101187.31;;;19.18
78859;BMP280;68210;52.032;4.634;2023-08-08T05:24:22;101190.44;;;19.23
78859;BMP280;68210;52.032;4.634;2023-08-08T05:26:22;101183.28;;;19.47
78859;BMP280;68210;52.032;4.634;2023-08-08T05:28:23;101178.09;;;19.62
78859;BMP280;68210;52.032;4.634;2023-08-08T05:30:23;101182.75;;;19.72
78859;BMP280;68210;52.032;4.634;2023-08-08T05:32:23;101194.19;;;19.64
78859;BMP280;68210;52.032;4.634;2023-08-08T05:34:24;101183.88;;;19.85
78859;BMP280;68210;52.032;4.634;2023-08-08T05:36:25;101176.78;;;19.91
78859;BMP280;68210;52.032;4.634;2023-08-08T05:38:25;101168.59;;;19.80
78859;BMP280;68210;52.032;4.634;2023-08-08T05:40:25;101181.50;;;19.87
78859;BMP280;68210;52.032;4.634;2023-08-08T05:42:26;101182.25;;;19.94
78859;BMP280;68210;52.032;4.634;2023-08-08T05:44:26;101182.19;;;20.05
78859;BMP280;68210;52.032;4.634;2023-08-08T05:46:27;101180.69;;;19.97
78859;BMP280;68210;52.032;4.634;2023-08-08T05:48:27;101180.22;;;20.05
78859;BMP280;68210;52.032;4.634;2023-08-08T05:50:27;101190.78;;;20.13
78859;BMP280;68210;52.032;4.634;2023-08-08T05:52:29;101187.69;;;20.05
78859;BMP280;68210;52.032;4.634;2023-08-08T05:54:29;101186.81;;;20.14
78859;BMP280;68210;52.032;4.634;2023-08-08T05:56:36;101176.53;;;20.25
78859;BMP280;68210;52.032;4.634;2023-08-08T05:58:39;101176.13;;;20.27
78859;BMP280;68210;52.032;4.634;2023-08-08T06:00:40;101171.91;;;20.15
78859;BMP280;68210;52.032;4.634;2023-08-08T06:02:40;101192.13;;;19.85
78859;BMP280;68210;52.032;4.634;2023-08-08T06:04:41;101184.56;;;20.03
78859;BMP280;68210;52.032;4.634;2023-08-08T06:06:41;101192.75;;;20.09
78859;BMP280;68210;52.032;4.634;2023-08-08T06:08:42;101186.53;;;19.99
78859;BMP280;68210;52.032;4.634;2023-08-08T06:10:42;101184.50;;;20.09
78859;BMP280;68210;52.032;4.634;2023-08-08T06:12:42;101185.75;;;19.98
78859;BMP280;68210;52.032;4.634;2023-08-08T06:14:43;101186.91;;;20.08
78859;BMP280;68210;52.032;4.634;2023-08-08T06:16:43;101197.84;;;20.18
78859;BMP280;68210;52.032;4.634;2023-08-08T06:18:46;101193.75;;;20.36
78859;BMP280;68210;52.032;4.634;2023-08-08T06:20:49;101194.47;;;20.43
78859;BMP280;68210;52.032;4.634;2023-08-08T06:22:50;101195.16;;;20.61
78859;BMP280;68210;52.032;4.634;2023-08-08T06:24:50;101197.53;;;20.99
78859;BMP280;68210;52.032;4.634;2023-08-08T06:26:51;101194.94;;;20.85
78859;BMP280;68210;52.032;4.634;2023-08-08T06:32:00;101185.06;;;20.84
78859;BMP280;68210;52.032;4.634;2023-08-08T06:34:00;101185.41;;;20.93
78859;BMP280;68210;52.032;4.634;2023-08-08T06:36:01;101190.81;;;21.00
78859;BMP280;68210;52.032;4.634;2023-08-08T06:38:03;101192.97;;;21.19
78859;BMP280;68210;52.032;4.634;2023-08-08T06:40:04;101185.09;;;21.21
78859;BMP280;68210;52.032;4.634;2023-08-08T06:42:07;101192.72;;;21.06
78859;BMP280;68210;52.032;4.634;2023-08-08T06:44:07;101188.94;;;21.27
78859;BMP280;68210;52.032;4.634;2023-08-08T06:46:08;101185.72;;;21.68
78859;BMP280;68210;52.032;4.634;2023-08-08T06:48:09;101188.16;;;21.89
78859;BMP280;68210;52.032;4.634;2023-08-08T06:50:10;101186.16;;;21.89
78859;BMP280;68210;52.032;4.634;2023-08-08T06:52:11;101192.25;;;21.77
78859;BMP280;68210;52.032;4.634;2023-08-08T06:54:11;101181.28;;;21.74
78859;BMP280;68210;52.032;4.634;2023-08-08T06:56:11;101181.78;;;21.32
78859;BMP280;68210;52.032;4.634;2023-08-08T06:58:12;101181.16;;;21.18
78859;BMP280;68210;52.032;4.634;2023-08-08T07:00:12;101181.22;;;21.15
78859;BMP280;68210;52.032;4.634;2023-08-08T07:02:13;101191.88;;;21.49
78859;BMP280;68210;52.032;4.634;2023-08-08T07:04:15;101190.28;;;21.48
78859;BMP280;68210;52.032;4.634;2023-08-08T07:06:18;101184.56;;;21.65
78859;BMP280;68210;52.032;4.634;2023-08-08T07:08:19;101188.28;;;21.82
78859;BMP280;68210;52.032;4.634;2023-08-08T07:10:20;101180.44;;;21.77
78859;BMP280;68210;52.032;4.634;2023-08-08T07:12:20;101189.13;;;21.75
78859;BMP280;68210;52.032;4.634;2023-08-08T07:14:21;101189.13;;;21.75
78859;BMP280;68210;52.032;4.634;2023-08-08T07:16:22;101187.50;;;21.81
78859;BMP280;68210;52.032;4.634;2023-08-08T07:18:22;101191.28;;;22.20
78859;BMP280;68210;52.032;4.634;2023-08-08T07:20:22;101188.41;;;22.27
78859;BMP280;68210;52.032;4.634;2023-08-08T07:22:23;101188.41;;;22.27
78859;BMP280;68210;52.032;4.634;2023-08-08T07:24:23;101186.81;;;22.26
78859;BMP280;68210;52.032;4.634;2023-08-08T07:26:28;101184.88;;;22.49
78859;BMP280;68210;52.032;4.634;2023-08-08T07:28:29;101192.97;;;22.37
78859;BMP280;68210;52.032;4.634;2023-08-08T07:30:29;101173.88;;;22.46
78859;BMP280;68210;52.032;4.634;2023-08-08T07:32:29;101179.66;;;22.55
78859;BMP280;68210;52.032;4.634;2023-08-08T07:34:30;101188.50;;;22.20
78859;BMP280;68210;52.032;4.634;2023-08-08T07:36:30;101180.84;;;22.31
78859;BMP280;68210;52.032;4.634;2023-08-08T07:38:31;101175.56;;;22.62
78859;BMP280;68210;52.032;4.634;2023-08-08T07:40:33;101173.97;;;22.61
78859;BMP280;68210;52.032;4.634;2023-08-08T07:42:33;101164.56;;;22.82
78859;BMP280;68210;52.032;4.634;2023-08-08T07:44:34;101165.22;;;22.44
78859;BMP280;68210;52.032;4.634;2023-08-08T07:46:35;101170.41;;;22.64
78859;BMP280;68210;52.032;4.634;2023-08-08T07:48:35;101172.47;;;22.80
78859;BMP280;68210;52.032;4.634;2023-08-08T07:50:36;101172.75;;;22.88
78859;BMP280;68210;52.032;4.634;2023-08-08T07:52:36;101165.97;;;23.31
78859;BMP280;68210;52.032;4.634;2023-08-08T07:54:37;101159.09;;;23.58
78859;BMP280;68210;52.032;4.634;2023-08-08T07:56:37;101162.06;;;23.48
78859;BMP280;68210;52.032;4.634;2023-08-08T07:58:37;101165.25;;;23.66
78859;BMP280;68210;52.032;4.634;2023-08-08T08:00:38;101158.41;;;24.05
78859;BMP280;68210;52.032;4.634;2023-08-08T08:02:42;101165.69;;;23.45
78859;BMP280;68210;52.032;4.634;2023-08-08T08:04:43;101167.72;;;23.41
78859;BMP280;68210;52.032;4.634;2023-08-08T08:06:43;101170.09;;;23.62
78859;BMP280;68210;52.032;4.634;2023-08-08T08:08:44;101174.63;;;23.72
78859;BMP280;68210;52.032;4.634;2023-08-08T08:10:44;101160.16;;;23.64
78859;BMP280;68210;52.032;4.634;2023-08-08T08:12:46;101171.41;;;23.73
78859;BMP280;68210;52.032;4.634;2023-08-08T08:14:46;101166.59;;;23.39
78859;BMP280;68210;52.032;4.634;2023-08-08T08:16:47;101167.75;;;22.80
78859;BMP280;68210;52.032;4.634;2023-08-08T08:18:48;101165.69;;;22.61
78859;BMP280;68210;52.032;4.634;2023-08-08T08:20:49;101178.38;;;22.10
78859;BMP280;68210;52.032;4.634;2023-08-08T08:22:49;101176.09;;;22.05
78859;BMP280;68210;52.032;4.634;2023-08-08T08:24:49;101172.44;;;22.38
78859;BMP280;68210;52.032;4.634;2023-08-08T08:26:50;101173.47;;;21.95
78859;BMP280;68210;52.032;4.634;2023-08-08T08:28:50;101177.97;;;22.38
78859;BMP280;68210;52.032;4.634;2023-08-08T08:30:51;101173.28;;;22.35
78859;BMP280;68210;52.032;4.634;2023-08-08T08:32:51;101176.53;;;22.30
78859;BMP280;68210;52.032;4.634;2023-08-08T08:34:51;101176.97;;;22.25
78859;BMP280;68210;52.032;4.634;2023-08-08T08:36:52;101174.72;;;21.91
78859;BMP280;68210;52.032;4.634;2023-08-08T08:38:52;101176.47;;;21.78
78859;BMP280;68210;52.032;4.634;2023-08-08T08:40:54;101171.56;;;21.92
78859;BMP280;68210;52.032;4.634;2023-08-08T08:42:56;101164.25;;;22.08
78859;BMP280;68210;52.032;4.634;2023-08-08T08:44:58;101175.34;;;22.01
78859;BMP280;68210;52.032;4.634;2023-08-08T08:47:01;101183.47;;;21.86
78859;BMP280;68210;52.032;4.634;2023-08-08T08:49:02;101176.59;;;21.71
78859;BMP280;68210;52.032;4.634;2023-08-08T08:51:06;101185.34;;;21.66
78859;BMP280;68210;52.032;4.634;2023-08-08T08:53:07;101189.44;;;21.81
78859;BMP280;68210;52.032;4.634;2023-08-08T08:55:08;101182.53;;;21.95
78859;BMP280;68210;52.032;4.634;2023-08-08T08:57:08;101188.06;;;21.95
78859;BMP280;68210;52.032;4.634;2023-08-08T08:59:09;101183.94;;;21.81
78859;BMP280;68210;52.032;4.634;2023-08-08T09:01:10;101198.16;;;21.79
78859;BMP280;68210;52.032;4.634;2023-08-08T09:03:10;101187.59;;;22.00
78859;BMP280;68210;52.032;4.634;2023-08-08T09:05:12;101187.59;;;22.00
78859;BMP280;68210;52.032;4.634;2023-08-08T09:07:13;101186.13;;;21.93
78859;BMP280;68210;52.032;4.634;2023-08-08T09:09:15;101193.88;;;21.75
78859;BMP280;68210;52.032;4.634;2023-08-08T09:11:16;101192.13;;;21.58
78859;BMP280;68210;52.032;4.634;2023-08-08T09:13:16;101193.09;;;21.74
78859;BMP280;68210;52.032;4.634;2023-08-08T09:15:17;101193.16;;;21.97
78859;BMP280;68210;52.032;4.634;2023-08-08T09:17:17;101194.09;;;22.17
78859;BMP280;68210;52.032;4.634;2023-08-08T09:19:18;101199.09;;;22.25
78859;BMP280;68210;52.032;4.634;2023-08-08T09:21:19;101190.38;;;22.00
78859;BMP280;68210;52.032;4.634;2023-08-08T09:23:20;101196.88;;;22.13
78859;BMP280;68210;52.032;4.634;2023-08-08T09:25:20;101199.34;;;22.34
78859;BMP280;68210;52.032;4.634;2023-08-08T09:27:21;101204.59;;;22.51
78859;BMP280;68210;52.032;4.634;2023-08-08T09:29:21;101182.41;;;22.02
78859;BMP280;68210;52.032;4.634;2023-08-08T09:31:24;101189.94;;;21.76
78859;BMP280;68210;52.032;4.634;2023-08-08T09:33:29;101196.25;;;21.73
78859;BMP280;68210;52.032;4.634;2023-08-08T09:35:29;101198.53;;;21.81
78859;BMP280;68210;52.032;4.634;2023-08-08T09:37:30;101188.63;;;21.84
78859;BMP280;68210;52.032;4.634;2023-08-08T09:39:31;101193.94;;;21.71
78859;BMP280;68210;52.032;4.634;2023-08-08T09:41:32;101199.50;;;21.68
78859;BMP280;68210;52.032;4.634;2023-08-08T09:43:32;101200.34;;;21.62
78859;BMP280;68210;52.032;4.634;2023-08-08T09:45:39;101190.34;;;21.74
78859;BMP280;68210;52.032;4.634;2023-08-08T09:47:42;101204.09;;;21.78
78859;BMP280;68210;52.032;4.634;2023-08-08T09:49:42;101209.66;;;21.74
78859;BMP280;68210;52.032;4.634;2023-08-08T09:51:43;101202.00;;;21.85
78859;BMP280;68210;52.032;4.634;2023-08-08T09:53:45;101199.66;;;22.13
78859;BMP280;68210;52.032;4.634;2023-08-08T09:55:47;101207.38;;;22.25
78859;BMP280;68210;52.032;4.634;2023-08-08T09:57:48;101200.63;;;22.26
78859;BMP280;68210;52.032;4.634;2023-08-08T09:59:49;101192.50;;;22.42
78859;BMP280;68210;52.032;4.634;2023-08-08T10:01:50;101201.31;;;22.33
78859;BMP280;68210;52.032;4.634;2023-08-08T10:03:51;101187.75;;;22.65
78859;BMP280;68210;52.032;4.634;2023-08-08T10:05:52;101189.38;;;22.85
78859;BMP280;68210;52.032;4.634;2023-08-08T10:07:53;101192.53;;;22.64
78859;BMP280;68210;52.032;4.634;2023-08-08T10:09:54;101203.16;;;22.40
78859;BMP280;68210;52.032;4.634;2023-08-08T10:11:55;101199.31;;;22.11
78859;BMP280;68210;52.032;4.634;2023-08-08T10:13:57;101210.38;;;22.34
78859;BMP280;68210;52.032;4.634;2023-08-08T10:15:57;101198.25;;;22.51
78859;BMP280;68210;52.032;4.634;2023-08-08T10:17:58;101202.13;;;22.79
78859;BMP280;68210;52.032;4.634;2023-08-08T10:19:58;101205.84;;;22.47
78859;BMP280;68210;52.032;4.634;2023-08-08T10:22:05;101199.09;;;21.95
78859;BMP280;68210;52.032;4.634;2023-08-08T10:24:07;101207.06;;;22.20
78859;BMP280;68210;52.032;4.634;2023-08-08T10:26:20;101203.69;;;21.79
78859;BMP280;68210;52.032;4.634;2023-08-08T10:28:21;101198.53;;;22.07
78859;BMP280;68210;52.032;4.634;2023-08-08T10:30:21;101199.97;;;21.89
78859;BMP280;68210;52.032;4.634;2023-08-08T10:32:24;101209.25;;;22.02
78859;BMP280;68210;52.032;4.634;2023-08-08T10:34:39;101202.50;;;22.06
78859;BMP280;68210;52.032;4.634;2023-08-08T10:36:51;101206.31;;;21.90
78859;BMP280;68210;52.032;4.634;2023-08-08T10:38:52;101202.47;;;22.10
78859;BMP280;68210;52.032;4.634;2023-08-08T10:40:58;101200.97;;;22.02
78859;BMP280;68210;52.032;4.634;2023-08-08T10:42:59;101196.13;;;21.83
78859;BMP280;68210;52.032;4.634;2023-08-08T10:45:01;101212.41;;;22.04
78859;BMP280;68210;52.032;4.634;2023-08-08T10:47:03;101207.25;;;22.32
78859;BMP280;68210;52.032;4.634;2023-08-08T10:49:05;101199.63;;;22.17
78859;BMP280;68210;52.032;4.634;2023-08-08T10:51:05;101200.09;;;22.34
78859;BMP280;68210;52.032;4.634;2023-08-08T10:53:08;101199.47;;;22.27
78859;BMP280;68210;52.032;4.634;2023-08-08T10:55:19;101215.06;;;22.37
78859;BMP280;68210;52.032;4.634;2023-08-08T10:57:23;101195.59;;;22.21
78859;BMP280;68210;52.032;4.634;2023-08-08T10:59:27;101208.59;;;22.47
78859;BMP280;68210;52.032;4.634;2023-08-08T11:01:30;101198.81;;;22.65
78859;BMP280;68210;52.032;4.634;2023-08-08T11:03:30;101198.25;;;22.51
78859;BMP280;68210;52.032;4.634;2023-08-08T11:05:32;101212.44;;;22.53
78859;BMP280;68210;52.032;4.634;2023-08-08T11:07:34;101198.78;;;22.20
78859;BMP280;68210;52.032;4.634;2023-08-08T11:09:37;101200.78;;;22.16
78859;BMP280;68210;52.032;4.634;2023-08-08T11:11:42;101199.19;;;21.89
78859;BMP280;68210;52.032;4.634;2023-08-08T11:13:42;101205.97;;;22.14
78859;BMP280;68210;52.032;4.634;2023-08-08T11:15:43;101201.81;;;21.99
78859;BMP280;68210;52.032;4.634;2023-08-08T11:17:43;101202.84;;;22.12
78859;BMP280;68210;52.032;4.634;2023-08-08T11:19:45;101212.34;;;22.11
78859;BMP280;68210;52.032;4.634;2023-08-08T11:21:47;101195.72;;;22.14
78859;BMP280;68210;52.032;4.634;2023-08-08T11:23:48;101204.50;;;22.06
78859;BMP280;68210;52.032;4.634;2023-08-08T11:25:48;101191.06;;;22.08
78859;BMP280;68210;52.032;4.634;2023-08-08T11:27:54;101198.22;;;22.02
78859;BMP280;68210;52.032;4.634;2023-08-08T11:29:56;101198.28;;;21.98
78859;BMP280;68210;52.032;4.634;2023-08-08T11:32:00;101201.75;;;21.76